Mae Sot, Thailand
Current Conditions -  °F | °C
As of 10:00 PM on Wednesday 28 Jan 2015 (Local Time) from VTPP Reporting Station
Few Clouds Few Clouds  
Wind Chill: 21°   Ceiling: Unl
Heat Index: 21°   Visibility: 4mi
Dew Point: 15°   Wind: 2mph
Humidity: 68%   Direction: 90°E
Pressure: 29.88"   Gusts: NA
Location:  16.71°N, 98.57°E
Report Text: VTPP 281500Z 09002KT 6000 FEW028 21/15 Q1012 A2989
Loading
Personal Weather Stations






























Interactive Weather Map New forecast layout! Learn more

10-Day Weather Forecast

Advertisements
Track Severe Weather on mobile